Time;durP1;ratioP1;P1;durP2;ratioP2;P2;SDS_P1;SDS_P2;PMS_P1;PMS_P2;Temp;Humidity;BMP_temperature;BMP_pressure;BME280_temperature;BME280_humidity;BME280_pressure;Samples;Min_cycle;Max_cycle;Signal;HPM_P1;HPM_P2
2023/05/20 00:00:24;;;;;;;7.23;5.83;;;20.30;50.50;;;;;;5041141;28;20195;-47
2023/05/20 00:02:50;;;;;;;7.27;6.30;;;20.30;50.50;;;;;;5038436;28;20439;-49
2023/05/20 00:05:15;;;;;;;8.50;6.40;;;20.20;50.40;;;;;;5042408;28;20196;-48
2023/05/20 00:07:41;;;;;;;7.60;6.80;;;20.20;50.70;;;;;;5046290;28;20224;-51
2023/05/20 00:10:07;;;;;;;6.93;6.00;;;20.20;50.80;;;;;;5040345;28;20196;-46
2023/05/20 00:12:33;;;;;;;7.40;6.20;;;20.10;50.90;;;;;;5039983;28;20246;-46
2023/05/20 00:15:00;;;;;;;7.97;6.10;;;20.10;51.00;;;;;;5033333;28;20267;-50
2023/05/20 00:17:27;;;;;;;6.07;5.47;;;20.00;51.00;;;;;;5044010;28;20501;-48
2023/05/20 00:19:53;;;;;;;5.90;5.33;;;20.00;51.30;;;;;;5039507;28;20860;-51
2023/05/20 00:22:18;;;;;;;7.10;5.70;;;20.00;51.20;;;;;;5045530;28;20443;-50
2023/05/20 00:24:44;;;;;;;7.43;5.97;;;20.00;51.00;;;;;;5041274;28;20543;-49
2023/05/20 00:27:10;;;;;;;6.23;5.63;;;20.00;51.00;;;;;;5042783;28;20220;-51
2023/05/20 00:29:35;;;;;;;6.47;5.53;;;19.90;51.20;;;;;;5047811;28;20193;-51
2023/05/20 00:32:01;;;;;;;7.50;5.80;;;19.90;51.30;;;;;;5028623;28;20606;-52
2023/05/20 00:34:26;;;;;;;8.70;5.77;;;19.90;51.20;;;;;;5047420;28;20304;-52
2023/05/20 00:36:52;;;;;;;7.03;6.00;;;19.90;51.10;;;;;;5047013;28;20200;-52
2023/05/20 00:39:18;;;;;;;7.13;6.10;;;19.90;51.20;;;;;;5050558;28;20254;-51
2023/05/20 00:41:43;;;;;;;7.00;6.30;;;19.90;51.30;;;;;;5033993;28;20526;-51
2023/05/20 00:44:09;;;;;;;10.17;5.70;;;19.90;51.40;;;;;;5046093;28;20250;-51
2023/05/20 00:46:35;;;;;;;7.93;6.17;;;19.90;51.40;;;;;;5042282;28;20332;-51
2023/05/20 00:49:01;;;;;;;7.57;5.87;;;19.90;51.50;;;;;;5050538;28;20200;-51
2023/05/20 00:51:27;;;;;;;7.63;5.70;;;19.90;51.60;;;;;;5042148;28;20447;-50
2023/05/20 00:53:54;;;;;;;6.43;5.83;;;19.90;51.60;;;;;;5039789;28;20205;-50
2023/05/20 00:56:20;;;;;;;6.60;6.00;;;20.00;51.40;;;;;;5045163;28;20205;-52
2023/05/20 00:58:46;;;;;;;7.87;7.07;;;20.00;51.30;;;;;;5043940;28;20470;-48
2023/05/20 01:01:12;;;;;;;6.37;5.70;;;20.00;51.30;;;;;;5047433;28;20426;-51
2023/05/20 01:03:38;;;;;;;8.60;6.83;;;20.00;51.20;;;;;;5038121;28;20204;-49
2023/05/20 01:06:04;;;;;;;8.70;6.87;;;20.00;51.40;;;;;;5046929;28;20269;-49
2023/05/20 01:08:31;;;;;;;6.37;5.63;;;19.90;51.40;;;;;;5043026;28;20804;-49
2023/05/20 01:11:18;;;;;;;7.37;5.00;;;19.90;51.50;;;;;;5046739;28;20279;-51
2023/05/20 01:13:47;;;;;;;6.03;5.40;;;19.90;51.60;;;;;;5046419;28;20471;-52
2023/05/20 01:16:17;;;;;;;8.23;6.83;;;19.90;51.70;;;;;;5045081;28;20926;-50
2023/05/20 01:18:44;;;;;;;7.73;5.53;;;19.90;51.70;;;;;;5048192;28;20481;-49
2023/05/20 01:21:14;;;;;;;6.60;5.87;;;20.00;51.70;;;;;;5047058;28;20953;-50
2023/05/20 01:23:41;;;;;;;6.40;5.80;;;20.00;51.60;;;;;;5050303;28;20533;-47
2023/05/20 01:26:07;;;;;;;6.47;5.10;;;20.00;51.60;;;;;;5050998;28;20977;-49
2023/05/20 01:28:34;;;;;;;6.00;5.40;;;19.90;51.70;;;;;;5049659;28;20501;-52
2023/05/20 01:31:03;;;;;;;6.93;6.17;;;19.90;51.80;;;;;;5048268;28;20454;-51
2023/05/20 01:33:30;;;;;;;7.20;6.00;;;19.80;51.90;;;;;;5043711;28;20838;-48
2023/05/20 01:35:57;;;;;;;6.30;5.80;;;19.80;51.90;;;;;;5046321;28;20440;-47
2023/05/20 01:38:24;;;;;;;6.67;5.60;;;19.80;51.90;;;;;;5051519;28;20450;-47
2023/05/20 01:40:51;;;;;;;6.20;5.60;;;19.90;52.00;;;;;;5046371;28;20439;-50
2023/05/20 01:43:17;;;;;;;10.23;5.53;;;19.90;52.00;;;;;;5043807;28;20849;-46
2023/05/20 01:45:43;;;;;;;6.33;5.53;;;19.90;51.80;;;;;;5041315;28;20501;-52
2023/05/20 01:48:13;;;;;;;6.37;5.87;;;19.90;51.70;;;;;;5050052;28;20981;-47
2023/05/20 01:50:39;;;;;;;7.37;5.80;;;19.90;51.80;;;;;;5050096;28;21226;-50
2023/05/20 01:53:08;;;;;;;7.63;7.00;;;19.90;51.70;;;;;;5047343;28;20475;-47
2023/05/20 01:55:34;;;;;;;7.00;6.30;;;19.90;51.50;;;;;;5034033;28;20452;-49
2023/05/20 01:58:00;;;;;;;7.33;6.63;;;19.90;51.70;;;;;;5050569;28;20510;-50
2023/05/20 02:00:25;;;;;;;9.73;6.13;;;19.90;51.50;;;;;;5039443;28;20548;-47
2023/05/20 02:02:51;;;;;;;6.23;5.63;;;19.90;51.70;;;;;;5048996;28;20682;-48
2023/05/20 02:05:16;;;;;;;7.80;5.43;;;19.80;51.70;;;;;;5045082;28;20247;-46
2023/05/20 02:07:42;;;;;;;7.63;5.50;;;19.80;51.60;;;;;;5048178;28;20728;-48
2023/05/20 02:10:08;;;;;;;7.20;6.20;;;19.80;51.50;;;;;;5041639;28;20234;-52
2023/05/20 02:12:33;;;;;;;5.87;5.10;;;19.80;51.60;;;;;;5051950;28;20636;-47
2023/05/20 02:14:59;;;;;;;8.87;6.63;;;19.80;51.60;;;;;;5051007;28;20430;-47
2023/05/20 02:17:25;;;;;;;7.20;5.00;;;19.80;51.60;;;;;;5052191;28;20696;-47
2023/05/20 02:19:51;;;;;;;6.37;5.47;;;19.80;51.60;;;;;;5038196;28;20204;-49
2023/05/20 02:22:17;;;;;;;5.50;5.00;;;19.80;51.80;;;;;;5044212;28;20444;-49
2023/05/20 02:24:43;;;;;;;5.10;4.70;;;19.70;51.70;;;;;;5049408;28;20195;-49
2023/05/20 02:27:08;;;;;;;6.40;4.80;;;19.80;51.90;;;;;;5048656;28;20734;-52
2023/05/20 02:29:34;;;;;;;5.63;4.63;;;19.80;51.80;;;;;;5042117;28;20200;-52
2023/05/20 02:32:00;;;;;;;5.60;5.00;;;19.70;51.70;;;;;;5041827;28;20612;-49
2023/05/20 02:34:26;;;;;;;4.80;4.40;;;19.70;51.80;;;;;;5049754;28;20266;-50
2023/05/20 02:36:53;;;;;;;6.93;4.70;;;19.70;51.90;;;;;;5047036;28;20712;-53
2023/05/20 02:39:18;;;;;;;5.80;4.87;;;19.70;51.80;;;;;;5048053;28;20474;-51
2023/05/20 02:41:44;;;;;;;4.77;4.27;;;19.70;51.80;;;;;;5040335;28;20465;-50
2023/05/20 02:44:09;;;;;;;5.20;4.70;;;19.70;51.90;;;;;;5048718;28;20196;-47
2023/05/20 02:46:35;;;;;;;6.27;4.70;;;19.70;52.10;;;;;;5044575;28;20220;-50
2023/05/20 02:49:01;;;;;;;5.67;5.03;;;19.70;52.10;;;;;;5040184;28;20246;-49
2023/05/20 02:51:26;;;;;;;4.93;4.50;;;19.70;52.10;;;;;;5037458;28;20213;-47
2023/05/20 02:53:52;;;;;;;4.90;4.43;;;19.70;52.30;;;;;;5044981;28;20572;-49
2023/05/20 02:56:20;;;;;;;5.87;4.60;;;19.80;52.30;;;;;;5043977;28;21125;-50
2023/05/20 02:58:46;;;;;;;3.80;3.50;;;19.80;52.20;;;;;;5046654;28;20304;-51
2023/05/20 03:01:12;;;;;;;6.97;4.80;;;19.90;52.00;;;;;;5045804;28;20510;-51
2023/05/20 03:03:39;;;;;;;5.30;4.77;;;20.00;52.00;;;;;;5044519;28;20794;-51
2023/05/20 03:06:05;;;;;;;5.50;4.50;;;20.00;51.90;;;;;;5046427;28;20254;-49
2023/05/20 03:08:33;;;;;;;5.20;4.50;;;20.00;51.70;;;;;;5043588;28;20899;-51
2023/05/20 03:10:59;;;;;;;5.33;4.83;;;20.00;51.60;;;;;;5043937;28;20443;-49
2023/05/20 03:13:24;;;;;;;4.57;4.17;;;20.00;51.40;;;;;;5050839;28;20464;-50
2023/05/20 03:15:50;;;;;;;4.80;4.37;;;19.90;51.70;;;;;;5041228;28;20440;-48
2023/05/20 03:18:16;;;;;;;4.53;4.10;;;19.90;51.70;;;;;;5042661;28;20224;-48
2023/05/20 03:20:42;;;;;;;6.07;5.30;;;19.90;51.70;;;;;;5038216;28;20275;-46
2023/05/20 03:23:08;;;;;;;6.50;5.47;;;19.90;51.70;;;;;;5050696;28;20193;-50
2023/05/20 03:25:34;;;;;;;5.57;5.10;;;19.90;51.70;;;;;;5051027;28;20203;-52
2023/05/20 03:28:00;;;;;;;5.40;4.90;;;19.90;51.60;;;;;;5042510;28;20490;-46
2023/05/20 03:30:26;;;;;;;5.17;4.70;;;19.90;51.60;;;;;;5043120;28;20933;-50
2023/05/20 03:32:53;;;;;;;5.10;4.30;;;20.00;51.60;;;;;;5042673;28;20196;-51
2023/05/20 03:35:18;;;;;;;4.30;3.90;;;20.00;51.70;;;;;;5033522;28;20454;-48
2023/05/20 03:37:44;;;;;;;5.03;4.63;;;20.00;51.60;;;;;;5040651;28;20550;-51
2023/05/20 03:40:10;;;;;;;5.80;4.33;;;20.00;51.40;;;;;;5050275;28;20204;-52
2023/05/20 03:42:37;;;;;;;4.93;4.53;;;20.00;51.40;;;;;;5035601;28;20189;-51
2023/05/20 03:45:03;;;;;;;7.90;5.00;;;20.00;51.50;;;;;;5039521;28;20200;-52
2023/05/20 03:47:29;;;;;;;5.53;5.13;;;20.00;51.70;;;;;;5041683;28;20503;-51
2023/05/20 03:49:54;;;;;;;6.00;4.83;;;20.00;51.60;;;;;;5042931;28;20455;-51
2023/05/20 03:52:20;;;;;;;6.10;4.97;;;20.00;51.50;;;;;;5042345;28;20583;-50
2023/05/20 03:54:46;;;;;;;6.20;5.60;;;20.00;51.50;;;;;;5041189;28;20193;-48
2023/05/20 03:57:12;;;;;;;7.00;5.10;;;20.00;51.40;;;;;;5037538;28;20212;-50
2023/05/20 03:59:37;;;;;;;4.67;4.27;;;20.10;51.60;;;;;;5038521;28;20564;-51
2023/05/20 04:02:04;;;;;;;4.87;4.47;;;20.00;51.50;;;;;;5040619;28;20220;-53
2023/05/20 04:04:30;;;;;;;6.53;5.47;;;20.00;51.60;;;;;;5034627;28;20200;-51
2023/05/20 04:06:55;;;;;;;6.50;4.60;;;20.00;51.50;;;;;;5042017;28;20494;-49
2023/05/20 04:09:21;;;;;;;4.83;4.43;;;20.00;51.60;;;;;;5037637;28;20273;-52
2023/05/20 04:11:47;;;;;;;5.70;4.80;;;19.90;51.60;;;;;;5038985;28;20204;-50
2023/05/20 04:14:14;;;;;;;5.60;5.20;;;19.90;51.60;;;;;;5037933;28;20435;-52
2023/05/20 04:16:39;;;;;;;5.23;4.73;;;19.90;51.70;;;;;;5034288;28;20197;-51
2023/05/20 04:19:06;;;;;;;5.00;4.60;;;19.80;51.70;;;;;;5034657;28;20439;-48
2023/05/20 04:21:31;;;;;;;5.67;5.17;;;19.80;51.90;;;;;;5045719;28;20189;-50
2023/05/20 04:23:57;;;;;;;5.50;4.90;;;19.80;52.90;;;;;;5037966;28;20442;-49
2023/05/20 04:26:22;;;;;;;5.70;5.10;;;19.80;52.30;;;;;;5045362;28;20217;-49
2023/05/20 04:28:48;;;;;;;5.47;4.97;;;19.90;52.00;;;;;;5042583;28;20196;-50
2023/05/20 04:31:14;;;;;;;5.70;5.20;;;19.90;51.90;;;;;;5043690;28;20272;-51
2023/05/20 04:33:40;;;;;;;6.73;5.40;;;19.90;51.90;;;;;;5046759;28;20188;-49
2023/05/20 04:36:07;;;;;;;4.60;4.17;;;19.90;52.00;;;;;;5040979;28;20200;-50
2023/05/20 04:38:33;;;;;;;6.40;5.50;;;20.00;52.10;;;;;;5032919;28;20814;-50
2023/05/20 04:40:59;;;;;;;6.33;4.37;;;19.90;52.10;;;;;;5036106;28;20443;-49
2023/05/20 04:43:25;;;;;;;6.00;5.40;;;20.00;51.90;;;;;;5043201;28;20193;-51
2023/05/20 04:45:54;;;;;;;4.40;4.10;;;20.00;51.80;;;;;;5042505;28;20508;-52
2023/05/20 04:48:21;;;;;;;5.03;4.50;;;20.10;51.70;;;;;;5037359;28;20475;-50
2023/05/20 04:50:48;;;;;;;5.63;4.90;;;20.10;52.00;;;;;;5040910;28;20440;-47
2023/05/20 04:53:14;;;;;;;5.80;4.77;;;20.10;51.70;;;;;;5047863;28;20541;-50
2023/05/20 04:55:40;;;;;;;5.73;5.23;;;20.10;52.00;;;;;;5048495;28;20967;-47
2023/05/20 04:58:07;;;;;;;5.57;3.93;;;20.10;51.90;;;;;;5043371;28;20467;-45
2023/05/20 05:00:33;;;;;;;5.67;4.90;;;20.10;52.00;;;;;;5043116;28;20446;-46
2023/05/20 05:03:00;;;;;;;8.30;5.93;;;20.20;52.20;;;;;;5040433;28;20443;-45
2023/05/20 05:05:25;;;;;;;7.00;6.10;;;20.20;52.30;;;;;;5041367;28;20813;-49
2023/05/20 05:07:51;;;;;;;5.90;5.30;;;20.20;52.10;;;;;;5050375;28;20482;-49
2023/05/20 05:10:16;;;;;;;6.33;5.23;;;20.10;51.90;;;;;;5039700;28;20274;-49
2023/05/20 05:12:42;;;;;;;8.30;6.90;;;20.00;52.30;;;;;;5043085;28;20690;-46
2023/05/20 05:15:08;;;;;;;7.40;6.70;;;20.00;52.30;;;;;;5049982;28;20818;-49
2023/05/20 05:17:35;;;;;;;8.40;7.60;;;20.10;52.30;;;;;;5041654;28;20292;-45
2023/05/20 05:20:00;;;;;;;10.17;7.37;;;20.10;52.20;;;;;;5036680;28;20448;-46
2023/05/20 05:22:26;;;;;;;9.40;7.67;;;20.10;52.20;;;;;;5043214;28;20806;-46
2023/05/20 05:24:52;;;;;;;8.80;6.90;;;20.10;52.40;;;;;;5039297;28;20251;-46
2023/05/20 05:27:17;;;;;;;8.03;6.77;;;20.10;52.60;;;;;;5042052;28;20228;-46
2023/05/20 05:29:43;;;;;;;7.90;6.87;;;20.20;52.70;;;;;;5040765;28;20344;-50
2023/05/20 05:32:08;;;;;;;7.00;6.30;;;20.10;52.70;;;;;;5047295;28;20200;-46
2023/05/20 05:34:34;;;;;;;10.37;6.10;;;20.10;52.60;;;;;;5045007;28;20224;-48
2023/05/20 05:37:00;;;;;;;6.83;6.23;;;20.20;52.70;;;;;;5048459;28;20205;-50
2023/05/20 05:39:25;;;;;;;6.97;6.37;;;20.10;52.50;;;;;;5042958;28;21010;-47
2023/05/20 05:41:52;;;;;;;7.13;6.17;;;20.20;52.70;;;;;;5044034;28;20660;-49
2023/05/20 05:44:18;;;;;;;6.50;5.90;;;20.10;52.80;;;;;;5045944;28;20196;-48
2023/05/20 05:46:44;;;;;;;6.00;5.50;;;20.20;52.80;;;;;;5049758;28;20494;-48
2023/05/20 05:49:09;;;;;;;7.07;6.37;;;20.30;52.90;;;;;;5044093;28;20565;-49
2023/05/20 05:51:35;;;;;;;10.40;6.07;;;20.30;52.90;;;;;;5040597;28;20185;-50
2023/05/20 05:54:01;;;;;;;6.33;5.73;;;20.30;53.10;;;;;;5052845;28;20200;-48
2023/05/20 05:56:26;;;;;;;4.93;4.53;;;20.40;53.10;;;;;;5044207;28;20858;-47
2023/05/20 05:58:52;;;;;;;5.93;5.43;;;20.40;53.00;;;;;;5050496;28;20647;-46
2023/05/20 06:01:18;;;;;;;5.70;5.20;;;20.50;52.80;;;;;;5050345;28;20193;-46
2023/05/20 06:03:43;;;;;;;5.60;4.70;;;20.60;52.80;;;;;;5047854;28;20184;-49
2023/05/20 06:06:09;;;;;;;6.60;4.93;;;20.60;52.80;;;;;;5045401;28;20203;-51
2023/05/20 06:08:34;;;;;;;6.60;6.00;;;20.60;53.00;;;;;;5047963;28;20241;-47
2023/05/20 06:11:00;;;;;;;6.90;5.87;;;20.70;53.00;;;;;;5052765;28;20774;-47
2023/05/20 06:13:25;;;;;;;6.10;5.50;;;20.70;52.80;;;;;;5048587;28;20189;-49
2023/05/20 06:15:52;;;;;;;6.87;5.60;;;20.90;52.90;;;;;;5052243;28;20200;-50
2023/05/20 06:18:18;;;;;;;5.90;5.30;;;20.80;52.90;;;;;;5052521;28;20228;-46
2023/05/20 06:20:43;;;;;;;7.20;6.60;;;20.80;53.40;;;;;;5046778;28;20850;-46
2023/05/20 06:23:09;;;;;;;8.10;5.10;;;20.90;53.40;;;;;;5047053;28;20279;-47
2023/05/20 06:25:35;;;;;;;5.50;5.07;;;20.70;53.00;;;;;;5048480;28;20192;-51
2023/05/20 06:28:00;;;;;;;5.60;5.10;;;20.80;53.00;;;;;;5051474;28;20228;-47
2023/05/20 06:30:26;;;;;;;5.03;4.63;;;20.90;53.30;;;;;;5051418;28;20238;-46
2023/05/20 06:32:52;;;;;;;5.00;4.50;;;21.00;53.20;;;;;;5052236;28;20355;-47
2023/05/20 06:35:17;;;;;;;6.20;5.70;;;21.00;53.10;;;;;;5052455;28;20199;-45
2023/05/20 06:37:43;;;;;;;5.40;4.70;;;20.90;53.10;;;;;;5045513;28;20219;-50
2023/05/20 06:40:09;;;;;;;6.23;5.70;;;20.70;53.20;;;;;;5047658;28;20678;-47
2023/05/20 06:42:34;;;;;;;5.70;5.20;;;20.40;54.20;;;;;;5049540;28;20203;-46
2023/05/20 06:45:00;;;;;;;5.53;5.10;;;20.50;54.20;;;;;;5053036;28;20427;-45
2023/05/20 06:47:26;;;;;;;6.50;5.90;;;20.40;54.50;;;;;;5051017;28;20589;-47
2023/05/20 06:49:51;;;;;;;5.17;4.67;;;20.50;54.20;;;;;;5052545;28;20192;-51
2023/05/20 06:52:17;;;;;;;5.60;5.10;;;20.30;54.50;;;;;;5049817;28;20207;-48
2023/05/20 06:54:42;;;;;;;6.70;5.40;;;19.90;55.20;;;;;;5048965;28;20243;-47
2023/05/20 06:57:08;;;;;;;5.90;5.30;;;20.30;55.00;;;;;;5051140;28;20203;-46
2023/05/20 06:59:35;;;;;;;5.60;5.10;;;20.40;54.40;;;;;;5051284;28;20240;-46
2023/05/20 07:02:01;;;;;;;5.50;5.10;;;20.60;54.10;;;;;;5051371;28;20288;-47
2023/05/20 07:04:27;;;;;;;5.67;5.17;;;21.00;53.30;;;;;;5044319;28;20440;-48
2023/05/20 07:06:52;;;;;;;6.67;5.43;;;21.20;53.00;;;;;;5041828;28;20495;-46
2023/05/20 07:09:18;;;;;;;5.70;5.20;;;21.50;52.80;;;;;;5040355;28;20612;-46
2023/05/20 07:11:43;;;;;;;5.87;5.27;;;21.30;52.80;;;;;;5033694;28;20209;-50
2023/05/20 07:14:10;;;;;;;6.07;5.47;;;21.30;52.60;;;;;;5046268;28;20223;-46
2023/05/20 07:16:35;;;;;;;5.60;5.10;;;21.60;52.50;;;;;;5048925;28;20196;-51
2023/05/20 07:19:02;;;;;;;5.80;5.20;;;21.50;52.20;;;;;;5043245;28;20488;-47
2023/05/20 07:21:27;;;;;;;5.90;5.40;;;21.20;53.10;;;;;;5042452;28;20188;-45
2023/05/20 07:23:53;;;;;;;5.47;4.73;;;21.00;53.60;;;;;;5040368;28;20415;-47
2023/05/20 07:26:18;;;;;;;5.63;5.10;;;20.90;53.60;;;;;;5052107;28;20217;-47
2023/05/20 07:28:45;;;;;;;5.83;5.33;;;21.00;53.40;;;;;;5051869;28;20299;-47
2023/05/20 07:31:11;;;;;;;5.70;5.30;;;21.30;53.00;;;;;;5036881;28;20954;-48
2023/05/20 07:33:37;;;;;;;5.30;4.90;;;21.60;52.60;;;;;;5043146;28;20448;-46
2023/05/20 07:36:03;;;;;;;6.60;5.90;;;21.80;52.70;;;;;;5038377;28;20600;-47
2023/05/20 07:38:28;;;;;;;5.73;5.27;;;22.00;51.80;;;;;;5045405;28;20270;-51
2023/05/20 07:40:54;;;;;;;6.90;5.30;;;22.10;52.90;;;;;;5047973;28;20188;-47
2023/05/20 07:43:20;;;;;;;6.13;5.70;;;22.20;52.40;;;;;;5042526;28;20364;-47
2023/05/20 07:45:45;;;;;;;5.20;4.70;;;22.30;51.50;;;;;;5046746;28;20197;-51
2023/05/20 07:48:11;;;;;;;8.13;5.30;;;22.50;51.90;;;;;;5046026;28;20232;-47
2023/05/20 07:50:38;;;;;;;5.57;5.07;;;22.60;51.20;;;;;;5047496;28;20188;-47
2023/05/20 07:53:04;;;;;;;5.53;5.13;;;22.70;50.50;;;;;;5048079;28;20447;-50
2023/05/20 07:55:32;;;;;;;5.80;5.20;;;22.70;49.90;;;;;;5049876;28;20562;-47
2023/05/20 07:57:58;;;;;;;5.13;4.73;;;22.90;49.80;;;;;;5050425;28;20581;-48
2023/05/20 08:00:24;;;;;;;6.23;5.63;;;23.00;49.60;;;;;;5049280;28;20902;-47
2023/05/20 08:02:49;;;;;;;5.60;5.20;;;22.90;49.10;;;;;;5048063;28;20251;-49
2023/05/20 08:05:15;;;;;;;5.57;5.17;;;22.90;49.20;;;;;;5041831;28;20532;-49
2023/05/20 08:07:41;;;;;;;5.63;5.23;;;22.90;48.90;;;;;;5036588;28;20304;-52
2023/05/20 08:10:07;;;;;;;5.97;5.47;;;22.80;49.20;;;;;;5045205;28;20236;-53
2023/05/20 08:12:32;;;;;;;5.80;5.30;;;22.80;49.30;;;;;;5046367;28;20256;-53
2023/05/20 08:14:58;;;;;;;6.17;5.57;;;23.00;49.20;;;;;;5044179;28;20515;-52
2023/05/20 08:17:24;;;;;;;5.53;5.03;;;23.00;48.70;;;;;;5046123;28;20197;-52
2023/05/20 08:19:49;;;;;;;5.77;5.20;;;23.30;48.70;;;;;;5047892;28;20192;-51
2023/05/20 08:22:15;;;;;;;5.47;4.97;;;23.40;49.00;;;;;;5047257;28;20232;-53
2023/05/20 08:24:41;;;;;;;5.20;4.80;;;23.50;48.90;;;;;;5042030;28;20200;-53
2023/05/20 08:27:06;;;;;;;5.10;4.60;;;23.80;49.00;;;;;;5038176;28;20274;-52
2023/05/20 08:29:32;;;;;;;6.63;4.67;;;23.80;47.80;;;;;;5048383;28;20275;-49
2023/05/20 08:31:57;;;;;;;5.57;5.00;;;23.80;47.90;;;;;;5047726;28;20193;-52
2023/05/20 08:34:23;;;;;;;5.97;5.37;;;23.90;48.50;;;;;;5047891;28;20665;-52
2023/05/20 08:36:49;;;;;;;6.27;5.23;;;23.60;47.70;;;;;;5047201;28;20196;-51
2023/05/20 08:39:14;;;;;;;5.43;4.93;;;23.50;47.70;;;;;;5044414;28;20211;-47
2023/05/20 08:41:40;;;;;;;5.33;4.93;;;23.70;48.10;;;;;;5036690;28;20196;-51
2023/05/20 08:44:08;;;;;;;5.10;4.60;;;23.90;48.50;;;;;;5047089;28;20715;-48
2023/05/20 08:46:35;;;;;;;5.53;5.13;;;24.00;48.20;;;;;;5047984;28;20331;-51
2023/05/20 08:49:01;;;;;;;5.90;5.50;;;24.00;47.40;;;;;;5045984;28;20435;-52
2023/05/20 08:51:31;;;;;;;6.17;5.60;;;24.20;47.30;;;;;;5046069;28;20447;-53
2023/05/20 08:53:59;;;;;;;5.70;4.97;;;23.70;47.10;;;;;;5045245;28;20454;-50
2023/05/20 08:56:26;;;;;;;6.67;5.40;;;23.70;48.20;;;;;;5042353;28;20443;-48
2023/05/20 08:58:52;;;;;;;5.27;4.77;;;23.70;48.00;;;;;;5043967;28;20467;-49
2023/05/20 09:01:18;;;;;;;5.93;5.43;;;24.10;48.00;;;;;;5043333;28;20439;-49
2023/05/20 09:03:44;;;;;;;5.60;5.10;;;24.50;47.80;;;;;;5047475;28;20786;-50
2023/05/20 09:06:09;;;;;;;5.43;4.80;;;24.80;46.70;;;;;;5036551;28;20446;-50
2023/05/20 09:08:36;;;;;;;5.53;5.10;;;25.00;46.80;;;;;;5047596;28;20273;-51
2023/05/20 09:11:02;;;;;;;5.70;5.20;;;25.30;46.70;;;;;;5048592;28;20663;-51
2023/05/20 09:13:31;;;;;;;6.23;5.50;;;25.70;45.70;;;;;;5044687;28;20570;-47
2023/05/20 09:16:00;;;;;;;7.50;5.23;;;25.90;44.20;;;;;;5031210;28;20642;-47
2023/05/20 09:18:26;;;;;;;5.07;4.63;;;26.10;43.70;;;;;;5049072;28;20530;-48
2023/05/20 09:20:54;;;;;;;6.87;5.63;;;26.20;44.60;;;;;;5049651;28;21033;-50
2023/05/20 09:23:24;;;;;;;5.57;5.13;;;26.30;44.20;;;;;;5049115;28;20567;-47
2023/05/20 09:25:51;;;;;;;6.93;5.50;;;26.60;44.10;;;;;;5044478;28;20447;-50
2023/05/20 09:28:23;;;;;;;5.37;4.97;;;26.70;42.40;;;;;;5047698;28;20562;-52
2023/05/20 09:30:50;;;;;;;5.13;4.73;;;26.90;42.90;;;;;;5031835;28;20953;-51
2023/05/20 09:33:16;;;;;;;6.50;5.20;;;26.90;43.00;;;;;;5048859;28;20478;-47
2023/05/20 09:35:43;;;;;;;4.90;4.57;;;27.00;43.40;;;;;;5047856;28;20440;-48
2023/05/20 09:38:10;;;;;;;5.67;5.17;;;27.00;42.80;;;;;;5052818;28;20466;-50
2023/05/20 09:40:39;;;;;;;5.53;5.03;;;27.10;43.10;;;;;;5048280;28;20461;-51
2023/05/20 09:43:09;;;;;;;5.43;4.90;;;27.10;42.40;;;;;;5050738;28;20812;-51
2023/05/20 09:45:37;;;;;;;5.90;5.40;;;27.20;42.60;;;;;;5045261;28;20461;-51
2023/05/20 09:48:04;;;;;;;5.00;4.60;;;27.30;42.80;;;;;;5048286;28;20486;-48
2023/05/20 09:50:31;;;;;;;5.30;4.90;;;27.30;42.50;;;;;;5049327;28;20827;-47
2023/05/20 09:53:01;;;;;;;5.20;4.80;;;27.20;43.10;;;;;;5043782;28;20522;-47
2023/05/20 09:55:27;;;;;;;6.83;5.20;;;27.20;42.60;;;;;;5051214;28;20442;-51
2023/05/20 09:57:55;;;;;;;5.83;5.33;;;27.20;42.60;;;;;;5050948;28;20453;-48
2023/05/20 10:00:20;;;;;;;5.00;4.60;;;27.20;41.80;;;;;;5044693;28;20601;-53
2023/05/20 10:02:51;;;;;;;5.83;5.30;;;27.30;41.40;;;;;;5048381;28;20435;-51
2023/05/20 10:05:35;;;;;;;4.67;4.37;;;27.40;41.90;;;;;;5047009;28;20185;-47
2023/05/20 10:08:25;;;;;;;5.10;4.70;;;27.50;42.30;;;;;;5052708;28;20600;-53
2023/05/20 10:11:21;;;;;;;5.80;5.30;;;27.40;42.00;;;;;;5038861;28;20528;-51
2023/05/20 10:13:56;;;;;;;5.97;5.40;;;27.40;43.00;;;;;;5045575;28;20446;-48
2023/05/20 10:16:36;;;;;;;4.60;4.30;;;27.40;42.00;;;;;;5050584;28;20532;-48
2023/05/20 10:19:18;;;;;;;5.00;4.70;;;26.90;42.90;;;;;;5046522;28;20820;-51
2023/05/20 10:21:44;;;;;;;4.40;4.10;;;27.30;41.80;;;;;;5040754;28;20534;-50
2023/05/20 10:24:10;;;;;;;5.23;4.80;;;27.60;41.00;;;;;;5046963;28;20581;-50
2023/05/20 10:26:40;;;;;;;5.97;5.43;;;27.90;40.60;;;;;;5045912;28;20750;-50
2023/05/20 10:29:16;;;;;;;8.30;5.20;;;28.10;39.00;;;;;;5043123;28;20470;-52
2023/05/20 10:31:51;;;;;;;6.43;5.80;;;27.70;38.60;;;;;;5046585;28;20460;-47
2023/05/20 10:34:19;;;;;;;7.47;6.77;;;27.20;40.20;;;;;;5050612;28;20795;-50
2023/05/20 10:36:53;;;;;;;6.63;6.00;;;27.00;39.70;;;;;;5053051;28;20432;-48
2023/05/20 10:39:25;;;;;;;5.10;4.63;;;27.20;40.30;;;;;;5051034;28;20987;-52
2023/05/20 10:41:51;;;;;;;4.37;4.07;;;27.30;40.20;;;;;;5051963;28;20446;-48
2023/05/20 10:44:16;;;;;;;5.37;4.87;;;27.40;39.70;;;;;;5049374;28;20439;-47
2023/05/20 10:46:42;;;;;;;4.60;4.27;;;27.80;40.10;;;;;;5044114;28;20229;-48
2023/05/20 10:49:20;;;;;;;5.33;4.93;;;27.80;38.90;;;;;;5049062;28;20223;-48
2023/05/20 10:51:46;;;;;;;5.83;5.33;;;27.80;38.80;;;;;;5045028;28;20186;-47
2023/05/20 10:54:13;;;;;;;4.63;4.00;;;28.00;38.90;;;;;;5038936;28;20456;-48
2023/05/20 10:56:49;;;;;;;4.70;4.30;;;27.50;39.10;;;;;;5047847;28;20443;-47
2023/05/20 10:59:14;;;;;;;4.70;4.30;;;27.60;39.00;;;;;;5045446;28;20906;-48
2023/05/20 11:01:42;;;;;;;5.17;4.67;;;27.50;39.30;;;;;;5050113;28;20439;-49
2023/05/20 11:04:08;;;;;;;4.70;4.30;;;28.00;40.00;;;;;;5047673;28;20212;-48
2023/05/20 11:06:33;;;;;;;4.87;4.47;;;28.10;37.80;;;;;;5052336;28;20475;-48
2023/05/20 11:09:06;;;;;;;4.90;4.50;;;28.10;38.00;;;;;;5052008;28;20727;-47
2023/05/20 11:11:32;;;;;;;5.50;5.00;;;28.30;37.80;;;;;;5052269;28;20192;-49
2023/05/20 11:13:59;;;;;;;5.10;4.70;;;28.40;38.00;;;;;;5044845;28;20511;-52
2023/05/20 11:16:25;;;;;;;4.87;4.57;;;28.50;37.40;;;;;;5045715;28;20193;-48
2023/05/20 11:18:50;;;;;;;4.20;3.90;;;28.70;37.60;;;;;;5051594;28;21002;-49
2023/05/20 11:21:18;;;;;;;5.03;4.63;;;28.80;37.30;;;;;;5051802;28;20192;-52
2023/05/20 11:23:43;;;;;;;4.37;4.07;;;28.70;36.60;;;;;;5048906;28;20552;-48
2023/05/20 11:26:09;;;;;;;5.50;5.10;;;28.80;36.50;;;;;;5050750;28;20538;-48
2023/05/20 11:28:35;;;;;;;5.13;4.67;;;28.60;37.00;;;;;;5051261;28;20197;-52
2023/05/20 11:31:01;;;;;;;5.60;4.60;;;28.40;37.70;;;;;;5049247;28;20801;-50
2023/05/20 11:33:26;;;;;;;4.67;4.37;;;28.60;37.90;;;;;;5041950;28;20189;-48
2023/05/20 11:35:53;;;;;;;4.63;4.33;;;28.80;37.70;;;;;;5043020;28;20208;-48
2023/05/20 11:38:20;;;;;;;4.33;4.03;;;29.20;36.80;;;;;;5049884;28;20192;-52
2023/05/20 11:40:53;;;;;;;4.97;4.67;;;29.20;36.30;;;;;;5046189;28;20538;-49
2023/05/20 11:43:20;;;;;;;4.70;4.40;;;29.00;36.40;;;;;;5034343;28;20820;-52
2023/05/20 11:45:58;;;;;;;4.00;3.70;;;28.90;35.80;;;;;;5046706;28;20957;-49
2023/05/20 11:48:23;;;;;;;4.97;4.50;;;28.90;36.10;;;;;;5034072;28;20501;-51
2023/05/20 11:50:49;;;;;;;5.27;4.50;;;29.10;36.40;;;;;;5047682;28;20558;-51
2023/05/20 11:53:20;;;;;;;5.03;4.60;;;29.30;36.60;;;;;;5031350;28;20636;-50
2023/05/20 11:55:46;;;;;;;5.03;4.63;;;29.20;36.90;;;;;;5046715;28;20186;-51
2023/05/20 11:58:18;;;;;;;4.60;4.30;;;29.10;35.60;;;;;;5041442;28;20524;-52
2023/05/20 12:00:44;;;;;;;8.83;4.10;;;29.10;36.60;;;;;;5042550;28;20304;-50
2023/05/20 12:03:10;;;;;;;6.10;5.27;;;29.40;36.10;;;;;;5046507;28;20530;-53
2023/05/20 12:05:36;;;;;;;4.70;4.40;;;29.50;35.40;;;;;;5038378;28;20229;-48
2023/05/20 12:08:02;;;;;;;4.40;4.10;;;29.60;35.00;;;;;;5042525;28;20968;-50
2023/05/20 12:10:28;;;;;;;4.37;4.07;;;29.50;35.00;;;;;;5049950;28;20203;-52
2023/05/20 12:12:54;;;;;;;4.50;4.10;;;29.30;35.40;;;;;;5049986;28;20811;-48
2023/05/20 12:15:19;;;;;;;4.20;3.90;;;29.40;36.40;;;;;;5044105;28;20197;-48
2023/05/20 12:17:50;;;;;;;4.73;4.33;;;29.40;35.90;;;;;;5046087;28;20188;-52
2023/05/20 12:20:17;;;;;;;5.43;4.10;;;29.30;35.40;;;;;;5040901;28;20311;-49
2023/05/20 12:22:46;;;;;;;4.50;4.20;;;29.40;35.70;;;;;;5051107;28;20423;-48
2023/05/20 12:25:14;;;;;;;8.67;4.00;;;29.30;35.80;;;;;;5051195;28;20568;-48
2023/05/20 12:27:40;;;;;;;3.70;3.50;;;29.20;35.50;;;;;;5050133;28;20531;-48
2023/05/20 12:30:07;;;;;;;5.17;3.70;;;29.40;35.80;;;;;;5046172;28;20431;-49
2023/05/20 12:32:32;;;;;;;4.03;3.73;;;29.40;35.90;;;;;;5048515;28;20454;-48
2023/05/20 12:34:58;;;;;;;4.00;3.70;;;29.30;35.40;;;;;;5051247;28;20425;-48
2023/05/20 12:37:23;;;;;;;5.03;3.90;;;29.10;35.60;;;;;;5051341;28;20288;-48
2023/05/20 12:39:49;;;;;;;4.23;3.93;;;29.20;36.10;;;;;;5042960;28;21395;-50
2023/05/20 12:42:15;;;;;;;4.00;3.70;;;29.00;35.80;;;;;;5044154;28;20205;-48